sensor_id;sensor_type;location;lat;lon;timestamp;pressure;altitude;pressure_sealevel;temperature
67501;BMP180;54349;52.528;19.760;2023-07-24T05:55:40;99803.00;;;16.90
67501;BMP180;54349;52.528;19.760;2023-07-24T05:58:10;99805.80;;;16.88
67501;BMP180;54349;52.528;19.760;2023-07-24T06:00:39;99793.00;;;16.80
67501;BMP180;54349;52.528;19.760;2023-07-24T06:03:07;99805.20;;;16.80
67501;BMP180;54349;52.528;19.760;2023-07-24T06:05:36;99809.40;;;16.80
67501;BMP180;54349;52.528;19.760;2023-07-24T06:08:04;99811.60;;;16.80
67501;BMP180;54349;52.528;19.760;2023-07-24T06:10:33;99799.80;;;16.80
67501;BMP180;54349;52.528;19.760;2023-07-24T06:13:41;99795.40;;;16.78
67501;BMP180;54349;52.528;19.760;2023-07-24T06:16:11;99790.20;;;16.70
67501;BMP180;54349;52.528;19.760;2023-07-24T06:18:43;99784.00;;;16.70
67501;BMP180;54349;52.528;19.760;2023-07-24T06:21:14;99778.20;;;16.60
67501;BMP180;54349;52.528;19.760;2023-07-24T06:23:45;99780.40;;;16.50
67501;BMP180;54349;52.528;19.760;2023-07-24T06:26:13;99775.40;;;16.40
67501;BMP180;54349;52.528;19.760;2023-07-24T08:04:17;99761.40;;;17.62
67501;BMP180;54349;52.528;19.760;2023-07-24T08:06:54;99767.40;;;17.50
67501;BMP180;54349;52.528;19.760;2023-07-24T08:09:22;99767.00;;;17.30
67501;BMP180;54349;52.528;19.760;2023-07-24T08:11:52;99755.20;;;17.10
67501;BMP180;54349;52.528;19.760;2023-07-24T08:14:24;99752.20;;;17.18
67501;BMP180;54349;52.528;19.760;2023-07-24T08:16:58;99752.60;;;17.74
67501;BMP180;54349;52.528;19.760;2023-07-24T08:20:29;99754.60;;;18.46
67501;BMP180;54349;52.528;19.760;2023-07-24T08:52:53;99711.00;;;18.66
67501;BMP180;54349;52.528;19.760;2023-07-24T08:55:24;99709.40;;;19.06
67501;BMP180;54349;52.528;19.760;2023-07-24T08:57:54;99712.00;;;19.10
67501;BMP180;54349;52.528;19.760;2023-07-24T09:00:23;99713.20;;;18.74
67501;BMP180;54349;52.528;19.760;2023-07-24T09:02:51;99710.80;;;18.50
67501;BMP180;54349;52.528;19.760;2023-07-24T09:05:27;99711.60;;;18.30
67501;BMP180;54349;52.528;19.760;2023-07-24T09:08:11;99706.00;;;18.70
67501;BMP180;54349;52.528;19.760;2023-07-24T09:34:22;99657.80;;;17.92
67501;BMP180;54349;52.528;19.760;2023-07-24T09:36:52;99655.20;;;18.46
67501;BMP180;54349;52.528;19.760;2023-07-24T09:39:49;99651.80;;;18.90
67501;BMP180;54349;52.528;19.760;2023-07-24T09:42:29;99651.40;;;19.30
67501;BMP180;54349;52.528;19.760;2023-07-24T09:48:12;99640.20;;;18.72
67501;BMP180;54349;52.528;19.760;2023-07-24T09:51:48;99629.40;;;18.50
67501;BMP180;54349;52.528;19.760;2023-07-24T10:20:18;99598.20;;;18.60
67501;BMP180;54349;52.528;19.760;2023-07-24T10:22:50;99590.80;;;18.30
67501;BMP180;54349;52.528;19.760;2023-07-24T10:25:39;99576.20;;;18.06
67501;BMP180;54349;52.528;19.760;2023-07-24T10:28:35;99569.00;;;17.74
67501;BMP180;54349;52.528;19.760;2023-07-24T10:31:26;99565.40;;;17.50
67501;BMP180;54349;52.528;19.760;2023-07-24T10:34:07;99559.20;;;17.30
67501;BMP180;54349;52.528;19.760;2023-07-24T10:36:38;99554.40;;;17.52
67501;BMP180;54349;52.528;19.760;2023-07-24T10:39:54;99548.40;;;18.10
67501;BMP180;54349;52.528;19.760;2023-07-24T10:42:24;99548.00;;;18.70
67501;BMP180;54349;52.528;19.760;2023-07-24T10:45:24;99552.00;;;19.14
67501;BMP180;54349;52.528;19.760;2023-07-24T10:48:05;99542.60;;;19.20
67501;BMP180;54349;52.528;19.760;2023-07-24T10:50:41;99541.40;;;19.00
67501;BMP180;54349;52.528;19.760;2023-07-24T10:53:23;99547.20;;;18.80
67501;BMP180;54349;52.528;19.760;2023-07-24T10:55:53;99542.20;;;18.56
67501;BMP180;54349;52.528;19.760;2023-07-24T10:58:27;99535.00;;;18.30
67501;BMP180;54349;52.528;19.760;2023-07-24T12:00:23;99489.40;;;18.10
67501;BMP180;54349;52.528;19.760;2023-07-24T12:03:36;99488.60;;;18.70
67501;BMP180;54349;52.528;19.760;2023-07-24T12:06:23;99483.00;;;19.30
67501;BMP180;54349;52.528;19.760;2023-07-24T12:09:18;99479.60;;;19.20
67501;BMP180;54349;52.528;19.760;2023-07-24T12:12:05;99468.40;;;18.94
67501;BMP180;54349;52.528;19.760;2023-07-24T12:14:43;99473.20;;;18.76
67501;BMP180;54349;52.528;19.760;2023-07-24T14:15:51;99334.40;;;18.16
67501;BMP180;54349;52.528;19.760;2023-07-24T14:18:19;99331.60;;;17.70
67501;BMP180;54349;52.528;19.760;2023-07-24T14:20:48;99327.00;;;17.30
67501;BMP180;54349;52.528;19.760;2023-07-24T14:23:50;99322.80;;;17.44
67501;BMP180;54349;52.528;19.760;2023-07-24T14:26:18;99329.80;;;18.16
67501;BMP180;54349;52.528;19.760;2023-07-24T14:28:47;99331.60;;;18.70
67501;BMP180;54349;52.528;19.760;2023-07-24T14:31:24;99333.40;;;19.18
67501;BMP180;54349;52.528;19.760;2023-07-24T16:04:24;99193.80;;;17.52
67501;BMP180;54349;52.528;19.760;2023-07-24T16:06:53;99195.60;;;18.12
67501;BMP180;54349;52.528;19.760;2023-07-24T16:09:25;99197.00;;;18.68
67501;BMP180;54349;52.528;19.760;2023-07-24T16:12:40;99201.40;;;19.24
67501;BMP180;54349;52.528;19.760;2023-07-24T16:15:25;99191.60;;;19.00
67501;BMP180;54349;52.528;19.760;2023-07-24T16:17:56;99184.00;;;18.60
67501;BMP180;54349;52.528;19.760;2023-07-24T16:20:28;99176.80;;;18.20
67501;BMP180;54349;52.528;19.760;2023-07-24T16:22:57;99160.00;;;17.76
67501;BMP180;54349;52.528;19.760;2023-07-24T16:25:25;99164.20;;;17.36
67501;BMP180;54349;52.528;19.760;2023-07-24T16:28:07;99159.00;;;17.20
67501;BMP180;54349;52.528;19.760;2023-07-24T16:30:36;99150.00;;;17.76
67501;BMP180;54349;52.528;19.760;2023-07-24T16:33:39;99146.20;;;18.36
67501;BMP180;54349;52.528;19.760;2023-07-24T16:36:08;99144.00;;;19.00
67501;BMP180;54349;52.528;19.760;2023-07-24T16:38:36;99145.60;;;19.40
67501;BMP180;54349;52.528;19.760;2023-07-24T18:06:30;99080.20;;;17.92
67501;BMP180;54349;52.528;19.760;2023-07-24T18:08:59;99082.40;;;17.60
67501;BMP180;54349;52.528;19.760;2023-07-24T18:11:30;99084.00;;;17.68
67501;BMP180;54349;52.528;19.760;2023-07-24T18:14:00;99084.00;;;18.16
67501;BMP180;54349;52.528;19.760;2023-07-24T18:16:30;99084.00;;;18.62
67501;BMP180;54349;52.528;19.760;2023-07-24T18:19:00;99083.00;;;19.04
67501;BMP180;54349;52.528;19.760;2023-07-24T18:21:31;99088.20;;;19.20
67501;BMP180;54349;52.528;19.760;2023-07-24T18:24:02;99086.40;;;18.98
67501;BMP180;54349;52.528;19.760;2023-07-24T18:48:51;99060.40;;;18.70
67501;BMP180;54349;52.528;19.760;2023-07-24T18:51:26;99065.00;;;18.40
67501;BMP180;54349;52.528;19.760;2023-07-24T18:53:58;99064.20;;;18.10
67501;BMP180;54349;52.528;19.760;2023-07-24T18:56:28;99062.60;;;18.40
67501;BMP180;54349;52.528;19.760;2023-07-24T18:59:00;99058.80;;;18.90
67501;BMP180;54349;52.528;19.760;2023-07-24T19:01:33;99057.40;;;19.28
67501;BMP180;54349;52.528;19.760;2023-07-24T19:04:02;99055.20;;;19.40
67501;BMP180;54349;52.528;19.760;2023-07-24T19:07:26;99051.40;;;19.00
67501;BMP180;54349;52.528;19.760;2023-07-24T19:10:06;99050.60;;;18.60
67501;BMP180;54349;52.528;19.760;2023-07-24T19:12:55;99044.20;;;18.28
67501;BMP180;54349;52.528;19.760;2023-07-24T19:15:29;99043.60;;;18.58
67501;BMP180;54349;52.528;19.760;2023-07-24T19:18:55;99048.20;;;19.08
67501;BMP180;54349;52.528;19.760;2023-07-24T19:21:34;99048.20;;;19.52
67501;BMP180;54349;52.528;19.760;2023-07-24T19:24:22;99042.40;;;19.80
67501;BMP180;54349;52.528;19.760;2023-07-24T19:27:00;99043.00;;;19.30
67501;BMP180;54349;52.528;19.760;2023-07-24T19:29:58;99034.00;;;18.66
67501;BMP180;54349;52.528;19.760;2023-07-24T19:32:36;99028.40;;;18.20
67501;BMP180;54349;52.528;19.760;2023-07-24T19:35:19;99026.20;;;17.82
67501;BMP180;54349;52.528;19.760;2023-07-24T19:38:23;99025.80;;;18.06
67501;BMP180;54349;52.528;19.760;2023-07-24T20:04:00;99051.20;;;19.60
67501;BMP180;54349;52.528;19.760;2023-07-24T20:06:32;99054.20;;;19.60
67501;BMP180;54349;52.528;19.760;2023-07-24T20:10:11;99052.40;;;19.10
67501;BMP180;54349;52.528;19.760;2023-07-24T20:12:51;99043.40;;;18.60
67501;BMP180;54349;52.528;19.760;2023-07-24T20:15:29;99031.60;;;18.28
67501;BMP180;54349;52.528;19.760;2023-07-24T20:18:01;99029.40;;;18.10
67501;BMP180;54349;52.528;19.760;2023-07-24T20:20:43;99030.40;;;18.64
67501;BMP180;54349;52.528;19.760;2023-07-24T22:06:30;99017.40;;;19.20
67501;BMP180;54349;52.528;19.760;2023-07-24T22:08:59;99017.00;;;18.50
67501;BMP180;54349;52.528;19.760;2023-07-24T22:11:27;99011.60;;;18.20
67501;BMP180;54349;52.528;19.760;2023-07-24T22:13:56;99008.20;;;17.90
67501;BMP180;54349;52.528;19.760;2023-07-24T22:16:24;99009.20;;;18.30
67501;BMP180;54349;52.528;19.760;2023-07-24T22:18:53;99012.40;;;18.72
67501;BMP180;54349;52.528;19.760;2023-07-24T22:21:25;99013.80;;;19.10
67501;BMP180;54349;52.528;19.760;2023-07-24T22:23:55;99017.20;;;19.40
67501;BMP180;54349;52.528;19.760;2023-07-24T22:26:24;99015.40;;;19.26
67501;BMP180;54349;52.528;19.760;2023-07-24T23:53:38;98973.40;;;18.10
67501;BMP180;54349;52.528;19.760;2023-07-24T23:56:06;98965.00;;;18.34
67501;BMP180;54349;52.528;19.760;2023-07-24T23:58:36;98969.80;;;18.76
